createdAt,value
2022-11-25T00:08:44.378Z,14.70
2022-11-25T00:13:50.332Z,15.45
2022-11-25T00:18:57.225Z,14.32
2022-11-25T00:24:05.455Z,14.07
2022-11-25T00:29:13.368Z,15.35
2022-11-25T00:34:19.244Z,15.93
2022-11-25T00:39:26.962Z,17.30
2022-11-25T00:44:39.603Z,20.10
2022-11-25T00:49:50.692Z,19.23
2022-11-25T00:54:59.483Z,21.80
2022-11-25T01:00:04.905Z,22.13
2022-11-25T01:05:11.432Z,22.63
2022-11-25T01:10:22.744Z,22.67
2022-11-25T01:15:28.987Z,16.35
2022-11-25T01:20:38.943Z,19.95
2022-11-25T01:25:44.526Z,23.80
2022-11-25T01:30:50.047Z,21.77
2022-11-25T01:35:55.439Z,24.23
2022-11-25T01:41:01.600Z,17.50
2022-11-25T01:46:13.024Z,23.15
2022-11-25T01:51:28.044Z,27.25
2022-11-25T01:56:36.434Z,28.55
2022-11-25T02:01:42.812Z,33.38
2022-11-25T02:06:53.854Z,24.92
2022-11-25T02:11:59.775Z,17.50
2022-11-25T02:17:07.825Z,24.50
2022-11-25T02:22:18.631Z,28.75
2022-11-25T02:27:27.354Z,24.73
2022-11-25T02:32:33.176Z,18.20
2022-11-25T02:37:38.926Z,30.03
2022-11-25T02:42:45.308Z,30.35
2022-11-25T02:47:51.830Z,26.08
2022-11-25T02:53:01.191Z,33.95
2022-11-25T02:58:07.119Z,18.33
2022-11-25T03:03:13.201Z,22.23
2022-11-25T03:08:19.134Z,20.50
2022-11-25T03:13:26.633Z,16.45
2022-11-25T03:18:53.729Z,28.02
2022-11-25T03:24:11.525Z,27.67
2022-11-25T03:29:17.912Z,23.60
2022-11-25T03:34:24.346Z,18.92
2022-11-25T03:39:30.564Z,32.13
2022-11-25T03:44:37.047Z,30.30
2022-11-25T03:49:43.032Z,35.63
2022-11-25T03:54:48.763Z,27.10
2022-11-25T03:59:57.645Z,23.98
2022-11-25T04:05:04.688Z,36.40
2022-11-25T04:10:11.017Z,23.42
2022-11-25T04:20:23.113Z,31.60
2022-11-25T04:25:40.760Z,24.98
2022-11-25T04:30:52.686Z,24.15
2022-11-25T04:36:00.169Z,26.15
2022-11-25T04:41:15.545Z,24.00
2022-11-25T04:46:27.752Z,29.30
2022-11-25T04:51:33.802Z,24.58
2022-11-25T04:56:44.165Z,24.90
2022-11-25T05:01:50.552Z,37.83
2022-11-25T05:07:10.741Z,43.92
2022-11-25T05:12:19.508Z,30.33
2022-11-25T05:17:35.159Z,40.85
2022-11-25T05:22:41.508Z,43.37
2022-11-25T05:27:54.009Z,41.50
2022-11-25T05:32:59.846Z,46.90
2022-11-25T05:38:05.564Z,42.57
2022-11-25T05:43:25.329Z,54.17
2022-11-25T05:48:31.562Z,51.13
2022-11-25T05:53:38.239Z,51.22
2022-11-25T05:58:45.938Z,59.17
2022-11-25T06:03:52.600Z,37.45
2022-11-25T06:08:58.479Z,60.40
2022-11-25T06:14:05.438Z,62.28
2022-11-25T06:19:12.331Z,56.53
2022-11-25T06:24:18.230Z,51.65
2022-11-25T06:29:26.461Z,54.17
2022-11-25T06:34:33.122Z,59.20
2022-11-25T06:39:47.122Z,54.30
2022-11-25T06:44:55.712Z,56.22
2022-11-25T06:50:01.694Z,53.42
2022-11-25T07:00:13.523Z,58.92
2022-11-25T07:05:20.381Z,51.42
2022-11-25T07:10:25.772Z,50.88
2022-11-25T07:15:31.725Z,46.80
2022-11-25T07:20:37.319Z,35.75
2022-11-25T07:25:42.960Z,40.13
2022-11-25T07:36:18.874Z,51.15
2022-11-25T07:41:25.797Z,44.63
2022-11-25T07:46:41.307Z,43.53
2022-11-25T07:51:51.639Z,46.23
2022-11-25T07:56:57.512Z,49.35
2022-11-25T08:02:03.088Z,42.95
2022-11-25T08:07:09.044Z,50.58
2022-11-25T08:12:15.086Z,46.35
2022-11-25T08:17:20.802Z,47.10
2022-11-25T08:22:26.752Z,47.22
2022-11-25T08:27:33.591Z,48.45
2022-11-25T08:32:40.546Z,45.67
2022-11-25T08:37:46.344Z,45.05
2022-11-25T08:47:57.423Z,43.53
2022-11-25T08:53:03.799Z,32.90
2022-11-25T09:03:17.866Z,61.28
2022-11-25T09:08:23.821Z,54.75
2022-11-25T09:13:29.413Z,56.45
2022-11-25T09:18:36.530Z,62.47
2022-11-25T09:23:43.646Z,58.75
2022-11-25T09:28:49.783Z,48.47
2022-11-25T09:33:55.205Z,48.50
2022-11-25T09:39:00.761Z,56.30
2022-11-25T09:44:31.534Z,64.75
2022-11-25T09:49:52.779Z,53.97
2022-11-25T09:54:58.684Z,64.43
2022-11-25T10:00:17.714Z,52.15
2022-11-25T10:05:52.893Z,51.90
2022-11-25T10:11:06.440Z,56.10
2022-11-25T10:16:20.822Z,54.78
2022-11-25T10:21:26.923Z,56.63
2022-11-25T10:26:37.014Z,57.45
2022-11-25T10:31:44.118Z,56.70
2022-11-25T10:36:51.412Z,54.05
2022-11-25T10:42:03.502Z,44.78
2022-11-25T10:47:14.235Z,58.35
2022-11-25T10:52:23.363Z,55.63
2022-11-25T10:57:30.936Z,62.65
2022-11-25T11:02:49.278Z,71.07
2022-11-25T11:08:30.092Z,58.33
2022-11-25T11:13:35.958Z,72.28
2022-11-25T11:23:52.786Z,51.83
2022-11-25T11:29:02.114Z,55.55
2022-11-25T11:34:17.149Z,57.45
2022-11-25T11:39:37.391Z,54.55
2022-11-25T11:44:58.360Z,53.20
2022-11-25T11:50:26.410Z,51.83
2022-11-25T11:55:31.777Z,49.40
2022-11-25T12:00:41.495Z,50.83
2022-11-25T12:05:49.118Z,49.15
2022-11-25T12:10:59.432Z,50.30
2022-11-25T12:16:15.668Z,48.28
2022-11-25T12:21:41.588Z,50.13
2022-11-25T12:27:04.078Z,45.92
2022-11-25T12:32:28.486Z,52.25
2022-11-25T12:37:57.258Z,50.20
2022-11-25T12:43:09.111Z,49.30
2022-11-25T12:48:21.144Z,48.25
2022-11-25T12:53:33.955Z,44.53
2022-11-25T12:59:00.599Z,42.30
2022-11-25T13:04:25.472Z,43.97
2022-11-25T13:09:50.594Z,37.28
2022-11-25T13:15:30.270Z,38.30
2022-11-25T13:20:40.037Z,36.72
2022-11-25T13:25:49.140Z,37.97
2022-11-25T13:30:55.628Z,37.03
2022-11-25T13:36:19.094Z,36.22
2022-11-25T13:42:00.564Z,34.97
2022-11-25T13:47:28.135Z,33.92
2022-11-25T13:53:03.173Z,34.78
2022-11-25T13:58:12.906Z,33.40
2022-11-25T14:16:03.775Z,32.63
2022-11-25T14:21:25.219Z,33.00
2022-11-25T14:26:53.560Z,33.03
2022-11-25T14:32:18.628Z,32.20
2022-11-25T14:37:31.415Z,32.92
2022-11-25T14:42:42.992Z,33.83
2022-11-25T14:47:49.125Z,34.92
2022-11-25T14:52:57.872Z,36.25
2022-11-25T14:58:07.443Z,34.00
2022-11-25T15:03:18.498Z,33.05
2022-11-25T15:08:25.631Z,31.85
2022-11-25T15:13:35.748Z,31.52
2022-11-25T15:18:46.131Z,32.95
2022-11-25T15:24:00.237Z,31.58
2022-11-25T15:29:23.927Z,39.40
2022-11-25T15:34:31.890Z,34.10
2022-11-25T15:39:41.268Z,45.03
2022-11-25T15:44:49.708Z,44.20
2022-11-25T15:50:11.701Z,48.00
2022-11-25T15:55:24.090Z,44.33
2022-11-25T16:00:33.320Z,38.22
2022-11-25T16:05:40.311Z,44.33
2022-11-25T16:10:49.389Z,45.15
2022-11-25T16:16:01.313Z,46.35
2022-11-25T16:21:15.285Z,39.78
2022-11-25T16:26:26.438Z,43.90
2022-11-25T16:31:35.206Z,42.42
2022-11-25T16:36:41.418Z,40.92
2022-11-25T16:41:56.114Z,45.40
2022-11-25T16:47:29.327Z,43.05
2022-11-25T16:52:38.811Z,39.20
2022-11-25T16:57:53.169Z,40.10
2022-11-25T17:03:02.895Z,40.38
2022-11-25T17:13:23.326Z,39.85
2022-11-25T17:18:29.171Z,37.53
2022-11-25T17:28:40.258Z,40.45
2022-11-25T17:33:47.370Z,37.58
2022-11-25T17:38:55.680Z,36.75
2022-11-25T17:44:01.789Z,39.33
2022-11-25T17:49:10.347Z,42.83
2022-11-25T17:54:19.636Z,49.53
2022-11-25T17:59:35.864Z,52.38
2022-11-25T18:04:41.294Z,52.97
2022-11-25T18:09:47.411Z,52.00
2022-11-25T18:14:52.671Z,45.00
2022-11-25T18:19:58.193Z,45.33
2022-11-25T18:25:08.073Z,46.47
2022-11-25T18:30:22.026Z,54.85
2022-11-25T18:35:36.029Z,44.60
2022-11-25T18:40:53.214Z,47.28
2022-11-25T18:46:00.530Z,41.97
2022-11-25T18:51:06.229Z,38.30
2022-11-25T18:56:17.627Z,38.75
2022-11-25T19:01:26.282Z,35.90
2022-11-25T19:06:32.056Z,37.17
2022-11-25T19:11:39.164Z,33.75
2022-11-25T19:16:45.123Z,35.42
2022-11-25T19:26:59.037Z,33.25
2022-11-25T19:32:07.081Z,32.15
2022-11-25T19:37:18.342Z,33.38
2022-11-25T19:42:26.103Z,32.03
2022-11-25T19:47:32.985Z,30.10
2022-11-25T19:52:41.455Z,31.13
2022-11-25T19:57:47.735Z,31.83
2022-11-25T20:07:59.474Z,32.22
2022-11-25T20:13:05.335Z,32.50
2022-11-25T20:18:18.131Z,30.35
2022-11-25T20:23:24.215Z,30.50
2022-11-25T20:28:34.365Z,29.53
2022-11-25T20:33:39.752Z,29.63
2022-11-25T20:38:55.884Z,27.07
2022-11-25T20:44:02.392Z,27.80
2022-11-25T20:49:19.540Z,30.95
2022-11-25T20:54:28.271Z,28.05
2022-11-25T20:59:33.586Z,26.10
2022-11-25T21:04:39.413Z,27.57
2022-11-25T21:14:50.400Z,24.92
2022-11-25T21:25:02.009Z,24.08
2022-11-25T21:30:07.918Z,23.65
2022-11-25T21:35:16.566Z,22.92
2022-11-25T21:40:28.231Z,20.75
2022-11-25T21:45:34.319Z,21.77
2022-11-25T21:55:45.958Z,19.55
2022-11-25T22:00:53.185Z,19.17
2022-11-25T22:05:58.970Z,19.05
2022-11-25T22:11:04.020Z,20.63
2022-11-25T22:16:09.254Z,20.57
2022-11-25T22:21:15.241Z,20.52
2022-11-25T22:26:28.619Z,19.73
2022-11-25T22:31:33.851Z,18.55
2022-11-25T22:36:42.490Z,20.17
2022-11-25T22:41:50.425Z,22.58
2022-11-25T22:46:55.997Z,24.77
2022-11-25T22:52:01.740Z,24.90
2022-11-25T22:57:07.110Z,23.40
2022-11-25T23:02:18.299Z,33.07
2022-11-25T23:07:24.567Z,29.30
2022-11-25T23:12:30.835Z,36.88
2022-11-25T23:17:37.058Z,34.28
2022-11-25T23:22:42.841Z,39.22
2022-11-25T23:27:48.871Z,37.65
2022-11-25T23:32:58.172Z,34.33
2022-11-25T23:38:17.928Z,35.55
2022-11-25T23:43:23.754Z,37.60
2022-11-25T23:48:31.264Z,25.70
2022-11-25T23:53:39.726Z,35.90
2022-11-25T23:58:45.251Z,32.10
